sensor_id;sensor_type;location;lat;lon;timestamp;P1;durP1;ratioP1;P2;durP2;ratioP2
13404;SDS011;6773;51.192;7.024;2023-06-22T00:00:50;3.45;;;2.35;;
13404;SDS011;6773;51.192;7.024;2023-06-22T00:03:20;2.42;;;2.22;;
13404;SDS011;6773;51.192;7.024;2023-06-22T00:05:48;3.35;;;2.70;;
13404;SDS011;6773;51.192;7.024;2023-06-22T00:08:14;2.88;;;2.58;;
13404;SDS011;6773;51.192;7.024;2023-06-22T00:10:40;2.70;;;2.50;;
13404;SDS011;6773;51.192;7.024;2023-06-22T00:13:07;3.17;;;2.30;;
13404;SDS011;6773;51.192;7.024;2023-06-22T00:15:34;2.83;;;2.45;;
13404;SDS011;6773;51.192;7.024;2023-06-22T00:18:01;2.88;;;2.35;;
13404;SDS011;6773;51.192;7.024;2023-06-22T00:20:27;2.53;;;2.33;;
13404;SDS011;6773;51.192;7.024;2023-06-22T00:22:57;2.85;;;2.55;;
13404;SDS011;6773;51.192;7.024;2023-06-22T00:25:24;3.00;;;2.70;;
13404;SDS011;6773;51.192;7.024;2023-06-22T00:27:50;4.07;;;2.78;;
13404;SDS011;6773;51.192;7.024;2023-06-22T00:30:16;2.92;;;2.45;;
13404;SDS011;6773;51.192;7.024;2023-06-22T00:32:43;2.85;;;2.25;;
13404;SDS011;6773;51.192;7.024;2023-06-22T00:35:09;2.85;;;2.30;;
13404;SDS011;6773;51.192;7.024;2023-06-22T00:37:38;6.78;;;2.60;;
13404;SDS011;6773;51.192;7.024;2023-06-22T00:40:07;3.17;;;2.80;;
13404;SDS011;6773;51.192;7.024;2023-06-22T00:42:35;3.05;;;2.58;;
13404;SDS011;6773;51.192;7.024;2023-06-22T00:45:01;2.97;;;2.22;;
13404;SDS011;6773;51.192;7.024;2023-06-22T00:47:27;4.05;;;2.83;;
13404;SDS011;6773;51.192;7.024;2023-06-22T00:49:53;3.25;;;2.95;;
13404;SDS011;6773;51.192;7.024;2023-06-22T00:52:19;3.17;;;2.75;;
13404;SDS011;6773;51.192;7.024;2023-06-22T00:54:52;3.25;;;2.33;;
13404;SDS011;6773;51.192;7.024;2023-06-22T00:57:18;3.58;;;2.63;;
13404;SDS011;6773;51.192;7.024;2023-06-22T00:59:45;3.00;;;2.58;;
13404;SDS011;6773;51.192;7.024;2023-06-22T01:02:12;4.38;;;2.75;;
13404;SDS011;6773;51.192;7.024;2023-06-22T01:04:39;3.60;;;2.47;;
13404;SDS011;6773;51.192;7.024;2023-06-22T01:09:34;3.78;;;2.60;;
13404;SDS011;6773;51.192;7.024;2023-06-22T01:12:05;3.53;;;2.60;;
13404;SDS011;6773;51.192;7.024;2023-06-22T01:14:41;3.70;;;2.90;;
13404;SDS011;6773;51.192;7.024;2023-06-22T01:17:12;3.70;;;2.40;;
13404;SDS011;6773;51.192;7.024;2023-06-22T01:19:45;3.10;;;2.70;;
13404;SDS011;6773;51.192;7.024;2023-06-22T01:22:15;3.30;;;2.65;;
13404;SDS011;6773;51.192;7.024;2023-06-22T01:24:55;2.60;;;2.40;;
13404;SDS011;6773;51.192;7.024;2023-06-22T01:30:10;2.58;;;2.38;;
13404;SDS011;6773;51.192;7.024;2023-06-22T01:32:38;3.10;;;2.40;;
13404;SDS011;6773;51.192;7.024;2023-06-22T01:35:06;2.90;;;2.50;;
13404;SDS011;6773;51.192;7.024;2023-06-22T01:37:34;2.42;;;2.15;;
13404;SDS011;6773;51.192;7.024;2023-06-22T01:40:00;2.95;;;2.65;;
13404;SDS011;6773;51.192;7.024;2023-06-22T01:42:28;4.15;;;2.50;;
13404;SDS011;6773;51.192;7.024;2023-06-22T01:44:54;2.80;;;2.60;;
13404;SDS011;6773;51.192;7.024;2023-06-22T01:47:21;2.60;;;2.40;;
13404;SDS011;6773;51.192;7.024;2023-06-22T01:49:47;3.28;;;2.63;;
13404;SDS011;6773;51.192;7.024;2023-06-22T01:52:14;3.05;;;2.40;;
13404;SDS011;6773;51.192;7.024;2023-06-22T01:54:40;2.92;;;2.60;;
13404;SDS011;6773;51.192;7.024;2023-06-22T01:57:06;4.53;;;3.13;;
13404;SDS011;6773;51.192;7.024;2023-06-22T01:59:37;3.38;;;2.58;;
13404;SDS011;6773;51.192;7.024;2023-06-22T02:02:09;2.97;;;2.50;;
13404;SDS011;6773;51.192;7.024;2023-06-22T02:07:23;2.92;;;2.40;;
13404;SDS011;6773;51.192;7.024;2023-06-22T02:09:51;2.90;;;2.53;;
13404;SDS011;6773;51.192;7.024;2023-06-22T02:12:24;3.65;;;2.40;;
13404;SDS011;6773;51.192;7.024;2023-06-22T02:14:52;3.13;;;2.58;;
13404;SDS011;6773;51.192;7.024;2023-06-22T02:17:19;3.78;;;2.90;;
13404;SDS011;6773;51.192;7.024;2023-06-22T02:19:44;2.90;;;2.55;;
13404;SDS011;6773;51.192;7.024;2023-06-22T02:22:11;4.90;;;3.00;;
13404;SDS011;6773;51.192;7.024;2023-06-22T02:24:37;6.63;;;3.45;;
13404;SDS011;6773;51.192;7.024;2023-06-22T02:27:03;3.85;;;2.83;;
13404;SDS011;6773;51.192;7.024;2023-06-22T02:29:32;6.35;;;2.75;;
13404;SDS011;6773;51.192;7.024;2023-06-22T02:31:58;3.72;;;2.63;;
13404;SDS011;6773;51.192;7.024;2023-06-22T02:34:24;4.90;;;3.13;;
13404;SDS011;6773;51.192;7.024;2023-06-22T02:36:49;3.95;;;3.10;;
13404;SDS011;6773;51.192;7.024;2023-06-22T02:39:23;3.60;;;3.03;;
13404;SDS011;6773;51.192;7.024;2023-06-22T02:41:49;2.97;;;2.67;;
13404;SDS011;6773;51.192;7.024;2023-06-22T02:44:16;4.75;;;2.80;;
13404;SDS011;6773;51.192;7.024;2023-06-22T02:46:42;4.18;;;3.13;;
13404;SDS011;6773;51.192;7.024;2023-06-22T02:49:09;4.00;;;2.95;;
13404;SDS011;6773;51.192;7.024;2023-06-22T02:51:39;3.33;;;2.88;;
13404;SDS011;6773;51.192;7.024;2023-06-22T02:54:08;4.05;;;3.65;;
13404;SDS011;6773;51.192;7.024;2023-06-22T02:56:34;3.88;;;3.17;;
13404;SDS011;6773;51.192;7.024;2023-06-22T02:59:01;3.58;;;3.10;;
13404;SDS011;6773;51.192;7.024;2023-06-22T03:01:27;6.05;;;3.50;;
13404;SDS011;6773;51.192;7.024;2023-06-22T03:03:55;3.65;;;3.20;;
13404;SDS011;6773;51.192;7.024;2023-06-22T03:06:21;4.18;;;3.10;;
13404;SDS011;6773;51.192;7.024;2023-06-22T03:08:54;4.95;;;3.08;;
13404;SDS011;6773;51.192;7.024;2023-06-22T03:11:24;3.63;;;2.92;;
13404;SDS011;6773;51.192;7.024;2023-06-22T03:13:50;3.75;;;3.28;;
13404;SDS011;6773;51.192;7.024;2023-06-22T03:16:17;3.45;;;3.15;;
13404;SDS011;6773;51.192;7.024;2023-06-22T03:18:44;4.00;;;2.95;;
13404;SDS011;6773;51.192;7.024;2023-06-22T03:21:09;3.30;;;3.00;;
13404;SDS011;6773;51.192;7.024;2023-06-22T03:23:35;4.50;;;3.13;;
13404;SDS011;6773;51.192;7.024;2023-06-22T03:26:01;4.78;;;3.33;;
13404;SDS011;6773;51.192;7.024;2023-06-22T03:28:27;4.00;;;3.40;;
13404;SDS011;6773;51.192;7.024;2023-06-22T03:30:53;3.72;;;3.25;;
13404;SDS011;6773;51.192;7.024;2023-06-22T03:33:19;4.13;;;2.90;;
13404;SDS011;6773;51.192;7.024;2023-06-22T03:35:45;3.92;;;2.95;;
13404;SDS011;6773;51.192;7.024;2023-06-22T03:38:11;4.35;;;3.72;;
13404;SDS011;6773;51.192;7.024;2023-06-22T03:40:37;4.32;;;3.50;;
13404;SDS011;6773;51.192;7.024;2023-06-22T03:43:03;3.20;;;2.50;;
13404;SDS011;6773;51.192;7.024;2023-06-22T03:45:29;5.20;;;3.55;;
13404;SDS011;6773;51.192;7.024;2023-06-22T03:47:54;4.53;;;3.83;;
13404;SDS011;6773;51.192;7.024;2023-06-22T03:50:20;3.83;;;3.30;;
13404;SDS011;6773;51.192;7.024;2023-06-22T03:52:47;4.35;;;3.15;;
13404;SDS011;6773;51.192;7.024;2023-06-22T03:55:12;4.13;;;3.42;;
13404;SDS011;6773;51.192;7.024;2023-06-22T03:57:38;4.40;;;3.13;;
13404;SDS011;6773;51.192;7.024;2023-06-22T04:00:04;4.50;;;3.05;;
13404;SDS011;6773;51.192;7.024;2023-06-22T04:02:31;5.20;;;3.03;;
13404;SDS011;6773;51.192;7.024;2023-06-22T04:04:57;4.72;;;3.22;;
13404;SDS011;6773;51.192;7.024;2023-06-22T04:07:22;3.60;;;3.08;;
13404;SDS011;6773;51.192;7.024;2023-06-22T04:09:48;3.75;;;3.20;;
13404;SDS011;6773;51.192;7.024;2023-06-22T04:12:14;4.10;;;3.42;;
13404;SDS011;6773;51.192;7.024;2023-06-22T04:14:39;4.43;;;3.47;;
13404;SDS011;6773;51.192;7.024;2023-06-22T04:17:05;6.63;;;4.10;;
13404;SDS011;6773;51.192;7.024;2023-06-22T04:19:31;4.10;;;3.58;;
13404;SDS011;6773;51.192;7.024;2023-06-22T04:21:56;5.10;;;3.70;;
13404;SDS011;6773;51.192;7.024;2023-06-22T04:24:22;4.18;;;3.50;;
13404;SDS011;6773;51.192;7.024;2023-06-22T04:26:48;4.90;;;3.95;;
13404;SDS011;6773;51.192;7.024;2023-06-22T04:29:19;5.63;;;3.85;;
13404;SDS011;6773;51.192;7.024;2023-06-22T04:31:55;4.63;;;3.80;;
13404;SDS011;6773;51.192;7.024;2023-06-22T04:34:23;7.05;;;3.65;;
13404;SDS011;6773;51.192;7.024;2023-06-22T04:36:51;5.13;;;4.13;;
13404;SDS011;6773;51.192;7.024;2023-06-22T04:39:17;3.95;;;3.33;;
13404;SDS011;6773;51.192;7.024;2023-06-22T04:41:44;4.55;;;3.25;;
13404;SDS011;6773;51.192;7.024;2023-06-22T04:46:37;4.88;;;4.30;;
13404;SDS011;6773;51.192;7.024;2023-06-22T04:49:04;4.75;;;4.03;;
13404;SDS011;6773;51.192;7.024;2023-06-22T04:51:31;5.03;;;3.78;;
13404;SDS011;6773;51.192;7.024;2023-06-22T04:53:57;4.50;;;3.60;;
13404;SDS011;6773;51.192;7.024;2023-06-22T04:56:25;3.72;;;3.20;;
13404;SDS011;6773;51.192;7.024;2023-06-22T04:58:54;5.82;;;3.92;;
13404;SDS011;6773;51.192;7.024;2023-06-22T05:01:22;3.58;;;3.28;;
13404;SDS011;6773;51.192;7.024;2023-06-22T05:03:48;9.25;;;5.22;;
13404;SDS011;6773;51.192;7.024;2023-06-22T05:06:14;8.32;;;5.55;;
13404;SDS011;6773;51.192;7.024;2023-06-22T05:08:40;5.93;;;5.32;;
13404;SDS011;6773;51.192;7.024;2023-06-22T05:11:06;6.40;;;5.05;;
13404;SDS011;6773;51.192;7.024;2023-06-22T05:13:32;7.22;;;5.18;;
13404;SDS011;6773;51.192;7.024;2023-06-22T05:15:58;7.75;;;5.35;;
13404;SDS011;6773;51.192;7.024;2023-06-22T05:18:27;6.18;;;5.20;;
13404;SDS011;6773;51.192;7.024;2023-06-22T05:20:54;10.93;;;5.75;;
13404;SDS011;6773;51.192;7.024;2023-06-22T05:23:20;7.45;;;5.30;;
13404;SDS011;6773;51.192;7.024;2023-06-22T05:25:46;6.97;;;5.30;;
13404;SDS011;6773;51.192;7.024;2023-06-22T05:28:12;7.63;;;5.50;;
13404;SDS011;6773;51.192;7.024;2023-06-22T05:30:37;6.88;;;5.50;;
13404;SDS011;6773;51.192;7.024;2023-06-22T05:33:03;7.43;;;5.05;;
13404;SDS011;6773;51.192;7.024;2023-06-22T05:35:29;6.25;;;5.65;;
13404;SDS011;6773;51.192;7.024;2023-06-22T05:37:55;6.15;;;5.40;;
13404;SDS011;6773;51.192;7.024;2023-06-22T05:40:21;6.22;;;5.40;;
13404;SDS011;6773;51.192;7.024;2023-06-22T05:42:47;6.45;;;5.82;;
13404;SDS011;6773;51.192;7.024;2023-06-22T05:45:13;6.40;;;5.78;;
13404;SDS011;6773;51.192;7.024;2023-06-22T05:47:39;8.00;;;5.82;;
13404;SDS011;6773;51.192;7.024;2023-06-22T05:50:05;7.35;;;6.45;;
13404;SDS011;6773;51.192;7.024;2023-06-22T05:52:33;7.13;;;6.07;;
13404;SDS011;6773;51.192;7.024;2023-06-22T05:54:59;8.93;;;5.57;;
13404;SDS011;6773;51.192;7.024;2023-06-22T05:57:24;6.80;;;5.70;;
13404;SDS011;6773;51.192;7.024;2023-06-22T05:59:50;6.80;;;5.95;;
13404;SDS011;6773;51.192;7.024;2023-06-22T06:02:16;7.45;;;6.15;;
13404;SDS011;6773;51.192;7.024;2023-06-22T06:04:42;7.10;;;6.40;;
13404;SDS011;6773;51.192;7.024;2023-06-22T06:07:07;9.80;;;6.32;;
13404;SDS011;6773;51.192;7.024;2023-06-22T06:09:33;7.95;;;6.03;;
13404;SDS011;6773;51.192;7.024;2023-06-22T06:11:59;6.13;;;5.53;;
13404;SDS011;6773;51.192;7.024;2023-06-22T06:14:27;7.65;;;6.35;;
13404;SDS011;6773;51.192;7.024;2023-06-22T06:16:53;7.00;;;6.30;;
13404;SDS011;6773;51.192;7.024;2023-06-22T06:19:19;7.28;;;6.55;;
13404;SDS011;6773;51.192;7.024;2023-06-22T06:21:45;8.30;;;7.15;;
13404;SDS011;6773;51.192;7.024;2023-06-22T06:24:11;8.00;;;7.20;;
13404;SDS011;6773;51.192;7.024;2023-06-22T06:26:37;9.32;;;7.78;;
13404;SDS011;6773;51.192;7.024;2023-06-22T06:29:03;9.73;;;8.15;;
13404;SDS011;6773;51.192;7.024;2023-06-22T06:31:29;8.65;;;7.85;;
13404;SDS011;6773;51.192;7.024;2023-06-22T06:33:55;9.10;;;8.20;;
13404;SDS011;6773;51.192;7.024;2023-06-22T06:36:21;13.50;;;10.23;;
13404;SDS011;6773;51.192;7.024;2023-06-22T06:38:46;11.43;;;9.88;;
13404;SDS011;6773;51.192;7.024;2023-06-22T06:41:15;19.67;;;11.80;;
13404;SDS011;6773;51.192;7.024;2023-06-22T06:43:41;15.68;;;10.95;;
13404;SDS011;6773;51.192;7.024;2023-06-22T06:46:08;19.63;;;11.25;;
13404;SDS011;6773;51.192;7.024;2023-06-22T06:48:35;15.02;;;10.95;;
13404;SDS011;6773;51.192;7.024;2023-06-22T06:51:01;13.32;;;10.70;;
13404;SDS011;6773;51.192;7.024;2023-06-22T06:53:26;13.35;;;11.35;;
13404;SDS011;6773;51.192;7.024;2023-06-22T06:55:53;12.07;;;10.88;;
13404;SDS011;6773;51.192;7.024;2023-06-22T06:58:19;12.10;;;10.82;;
13404;SDS011;6773;51.192;7.024;2023-06-22T07:00:45;15.38;;;11.35;;
13404;SDS011;6773;51.192;7.024;2023-06-22T07:03:10;15.45;;;11.75;;
13404;SDS011;6773;51.192;7.024;2023-06-22T07:05:36;14.20;;;11.57;;
13404;SDS011;6773;51.192;7.024;2023-06-22T07:08:02;14.23;;;12.75;;
13404;SDS011;6773;51.192;7.024;2023-06-22T07:10:28;13.13;;;11.27;;
13404;SDS011;6773;51.192;7.024;2023-06-22T07:12:54;13.70;;;10.52;;
13404;SDS011;6773;51.192;7.024;2023-06-22T07:15:19;13.27;;;11.57;;
13404;SDS011;6773;51.192;7.024;2023-06-22T07:17:45;12.35;;;10.52;;
13404;SDS011;6773;51.192;7.024;2023-06-22T07:20:11;13.40;;;11.15;;
13404;SDS011;6773;51.192;7.024;2023-06-22T07:22:40;11.70;;;10.50;;
13404;SDS011;6773;51.192;7.024;2023-06-22T07:25:07;12.70;;;11.35;;
13404;SDS011;6773;51.192;7.024;2023-06-22T07:27:39;13.65;;;10.63;;
13404;SDS011;6773;51.192;7.024;2023-06-22T07:30:10;11.35;;;10.15;;
13404;SDS011;6773;51.192;7.024;2023-06-22T07:32:36;15.23;;;11.55;;
13404;SDS011;6773;51.192;7.024;2023-06-22T07:35:02;12.38;;;10.80;;
13404;SDS011;6773;51.192;7.024;2023-06-22T07:37:29;13.27;;;9.73;;
13404;SDS011;6773;51.192;7.024;2023-06-22T07:39:55;12.27;;;10.98;;
13404;SDS011;6773;51.192;7.024;2023-06-22T07:42:24;12.73;;;10.35;;
13404;SDS011;6773;51.192;7.024;2023-06-22T07:44:50;12.10;;;10.13;;
13404;SDS011;6773;51.192;7.024;2023-06-22T07:47:16;15.27;;;10.55;;
13404;SDS011;6773;51.192;7.024;2023-06-22T07:49:44;12.85;;;10.73;;
13404;SDS011;6773;51.192;7.024;2023-06-22T07:52:10;15.73;;;11.35;;
13404;SDS011;6773;51.192;7.024;2023-06-22T07:54:36;11.68;;;10.43;;
13404;SDS011;6773;51.192;7.024;2023-06-22T07:57:02;11.88;;;10.68;;
13404;SDS011;6773;51.192;7.024;2023-06-22T07:59:27;13.60;;;9.27;;
13404;SDS011;6773;51.192;7.024;2023-06-22T08:01:54;8.95;;;8.05;;
13404;SDS011;6773;51.192;7.024;2023-06-22T08:04:20;10.90;;;8.50;;
13404;SDS011;6773;51.192;7.024;2023-06-22T08:06:46;9.25;;;7.95;;
13404;SDS011;6773;51.192;7.024;2023-06-22T08:09:12;9.45;;;8.40;;
13404;SDS011;6773;51.192;7.024;2023-06-22T08:11:38;9.38;;;7.10;;
13404;SDS011;6773;51.192;7.024;2023-06-22T08:14:04;8.77;;;7.80;;
13404;SDS011;6773;51.192;7.024;2023-06-22T08:16:30;7.65;;;6.60;;
13404;SDS011;6773;51.192;7.024;2023-06-22T08:18:55;8.52;;;7.63;;
13404;SDS011;6773;51.192;7.024;2023-06-22T08:21:21;8.68;;;7.32;;
13404;SDS011;6773;51.192;7.024;2023-06-22T08:23:47;9.25;;;7.93;;
13404;SDS011;6773;51.192;7.024;2023-06-22T08:26:14;10.68;;;8.00;;
13404;SDS011;6773;51.192;7.024;2023-06-22T08:28:40;11.73;;;8.38;;
13404;SDS011;6773;51.192;7.024;2023-06-22T08:31:06;8.75;;;7.93;;
13404;SDS011;6773;51.192;7.024;2023-06-22T08:33:32;9.48;;;8.15;;
13404;SDS011;6773;51.192;7.024;2023-06-22T08:35:58;10.30;;;7.95;;
13404;SDS011;6773;51.192;7.024;2023-06-22T08:38:24;8.32;;;7.35;;
13404;SDS011;6773;51.192;7.024;2023-06-22T08:40:50;8.07;;;7.28;;
13404;SDS011;6773;51.192;7.024;2023-06-22T08:43:16;10.18;;;7.45;;
13404;SDS011;6773;51.192;7.024;2023-06-22T08:45:42;9.63;;;7.93;;
13404;SDS011;6773;51.192;7.024;2023-06-22T08:48:08;9.35;;;8.27;;
13404;SDS011;6773;51.192;7.024;2023-06-22T08:50:34;8.85;;;7.95;;
13404;SDS011;6773;51.192;7.024;2023-06-22T08:53:00;10.77;;;7.90;;
13404;SDS011;6773;51.192;7.024;2023-06-22T08:55:26;8.00;;;6.45;;
13404;SDS011;6773;51.192;7.024;2023-06-22T08:57:52;8.80;;;7.40;;
13404;SDS011;6773;51.192;7.024;2023-06-22T09:00:17;8.65;;;6.53;;
13404;SDS011;6773;51.192;7.024;2023-06-22T09:02:45;8.23;;;6.15;;
13404;SDS011;6773;51.192;7.024;2023-06-22T09:05:11;6.82;;;6.10;;
13404;SDS011;6773;51.192;7.024;2023-06-22T09:07:37;7.78;;;6.28;;
13404;SDS011;6773;51.192;7.024;2023-06-22T09:10:04;7.40;;;6.70;;
13404;SDS011;6773;51.192;7.024;2023-06-22T09:12:30;6.70;;;5.78;;
13404;SDS011;6773;51.192;7.024;2023-06-22T09:14:57;7.85;;;6.85;;
13404;SDS011;6773;51.192;7.024;2023-06-22T09:17:24;7.78;;;7.00;;
13404;SDS011;6773;51.192;7.024;2023-06-22T09:19:50;7.75;;;7.05;;
13404;SDS011;6773;51.192;7.024;2023-06-22T09:22:16;8.75;;;7.38;;
13404;SDS011;6773;51.192;7.024;2023-06-22T09:24:42;10.95;;;7.45;;
13404;SDS011;6773;51.192;7.024;2023-06-22T09:27:07;7.93;;;7.13;;
13404;SDS011;6773;51.192;7.024;2023-06-22T09:29:33;7.65;;;6.85;;
13404;SDS011;6773;51.192;7.024;2023-06-22T09:31:59;8.40;;;7.25;;
13404;SDS011;6773;51.192;7.024;2023-06-22T09:34:25;10.98;;;7.07;;
13404;SDS011;6773;51.192;7.024;2023-06-22T09:36:50;9.23;;;7.68;;
13404;SDS011;6773;51.192;7.024;2023-06-22T09:39:17;8.20;;;7.40;;
13404;SDS011;6773;51.192;7.024;2023-06-22T09:41:43;7.80;;;7.10;;
13404;SDS011;6773;51.192;7.024;2023-06-22T09:44:09;9.48;;;8.27;;
13404;SDS011;6773;51.192;7.024;2023-06-22T09:46:35;8.65;;;7.60;;
13404;SDS011;6773;51.192;7.024;2023-06-22T09:49:01;8.98;;;7.78;;
13404;SDS011;6773;51.192;7.024;2023-06-22T09:51:27;8.73;;;7.93;;
13404;SDS011;6773;51.192;7.024;2023-06-22T09:53:53;9.10;;;8.20;;
13404;SDS011;6773;51.192;7.024;2023-06-22T09:56:19;8.68;;;7.88;;
13404;SDS011;6773;51.192;7.024;2023-06-22T09:58:45;9.50;;;7.53;;
13404;SDS011;6773;51.192;7.024;2023-06-22T10:01:12;8.27;;;7.47;;
13404;SDS011;6773;51.192;7.024;2023-06-22T10:03:40;8.98;;;8.07;;
13404;SDS011;6773;51.192;7.024;2023-06-22T10:06:06;9.45;;;7.07;;
13404;SDS011;6773;51.192;7.024;2023-06-22T10:08:33;9.85;;;7.28;;
13404;SDS011;6773;51.192;7.024;2023-06-22T10:10:59;7.68;;;6.78;;
13404;SDS011;6773;51.192;7.024;2023-06-22T10:13:25;7.25;;;6.55;;
13404;SDS011;6773;51.192;7.024;2023-06-22T10:15:50;6.93;;;5.90;;
13404;SDS011;6773;51.192;7.024;2023-06-22T10:18:20;9.27;;;6.07;;
13404;SDS011;6773;51.192;7.024;2023-06-22T10:20:49;7.00;;;6.30;;
13404;SDS011;6773;51.192;7.024;2023-06-22T10:23:19;9.40;;;6.68;;
13404;SDS011;6773;51.192;7.024;2023-06-22T10:25:45;7.38;;;6.68;;
13404;SDS011;6773;51.192;7.024;2023-06-22T10:28:11;7.10;;;6.47;;
13404;SDS011;6773;51.192;7.024;2023-06-22T10:30:37;7.57;;;6.70;;
13404;SDS011;6773;51.192;7.024;2023-06-22T10:33:07;8.70;;;6.80;;
13404;SDS011;6773;51.192;7.024;2023-06-22T10:35:33;8.93;;;7.15;;
13404;SDS011;6773;51.192;7.024;2023-06-22T10:37:59;7.80;;;7.00;;
13404;SDS011;6773;51.192;7.024;2023-06-22T10:40:25;8.20;;;7.40;;
13404;SDS011;6773;51.192;7.024;2023-06-22T10:42:51;8.63;;;7.70;;
13404;SDS011;6773;51.192;7.024;2023-06-22T10:45:16;11.63;;;10.48;;
13404;SDS011;6773;51.192;7.024;2023-06-22T10:47:42;14.27;;;12.23;;
13404;SDS011;6773;51.192;7.024;2023-06-22T10:50:08;10.68;;;9.57;;
13404;SDS011;6773;51.192;7.024;2023-06-22T10:52:34;9.65;;;8.65;;
13404;SDS011;6773;51.192;7.024;2023-06-22T10:54:59;12.75;;;9.52;;
13404;SDS011;6773;51.192;7.024;2023-06-22T10:57:25;13.07;;;9.70;;
13404;SDS011;6773;51.192;7.024;2023-06-22T10:59:51;12.57;;;11.05;;
13404;SDS011;6773;51.192;7.024;2023-06-22T11:02:17;13.52;;;11.82;;
13404;SDS011;6773;51.192;7.024;2023-06-22T11:04:42;13.10;;;11.73;;
13404;SDS011;6773;51.192;7.024;2023-06-22T11:07:09;13.02;;;11.65;;
13404;SDS011;6773;51.192;7.024;2023-06-22T11:09:35;14.13;;;11.63;;
13404;SDS011;6773;51.192;7.024;2023-06-22T11:12:00;14.10;;;12.57;;
13404;SDS011;6773;51.192;7.024;2023-06-22T11:14:26;14.02;;;12.55;;
13404;SDS011;6773;51.192;7.024;2023-06-22T11:16:52;16.17;;;13.85;;
13404;SDS011;6773;51.192;7.024;2023-06-22T11:19:18;18.05;;;13.82;;
13404;SDS011;6773;51.192;7.024;2023-06-22T11:21:44;16.13;;;14.23;;
13404;SDS011;6773;51.192;7.024;2023-06-22T11:24:09;15.95;;;14.30;;
13404;SDS011;6773;51.192;7.024;2023-06-22T11:26:35;16.40;;;14.73;;
13404;SDS011;6773;51.192;7.024;2023-06-22T11:29:02;14.82;;;13.10;;
13404;SDS011;6773;51.192;7.024;2023-06-22T11:31:30;15.32;;;13.50;;
13404;SDS011;6773;51.192;7.024;2023-06-22T11:33:57;17.30;;;13.40;;
13404;SDS011;6773;51.192;7.024;2023-06-22T11:36:23;20.17;;;13.75;;
13404;SDS011;6773;51.192;7.024;2023-06-22T11:38:49;17.13;;;12.45;;
13404;SDS011;6773;51.192;7.024;2023-06-22T11:41:15;12.85;;;11.55;;
13404;SDS011;6773;51.192;7.024;2023-06-22T11:43:40;14.15;;;11.93;;
13404;SDS011;6773;51.192;7.024;2023-06-22T11:46:06;14.90;;;12.52;;
13404;SDS011;6773;51.192;7.024;2023-06-22T11:48:33;13.30;;;11.40;;
13404;SDS011;6773;51.192;7.024;2023-06-22T11:50:59;14.45;;;12.75;;
13404;SDS011;6773;51.192;7.024;2023-06-22T11:53:25;13.68;;;12.27;;
13404;SDS011;6773;51.192;7.024;2023-06-22T11:55:51;14.60;;;12.02;;
13404;SDS011;6773;51.192;7.024;2023-06-22T11:58:19;14.20;;;12.65;;
13404;SDS011;6773;51.192;7.024;2023-06-22T12:00:44;13.23;;;11.95;;
13404;SDS011;6773;51.192;7.024;2023-06-22T12:03:11;14.15;;;12.27;;
13404;SDS011;6773;51.192;7.024;2023-06-22T12:05:37;11.80;;;10.35;;
13404;SDS011;6773;51.192;7.024;2023-06-22T12:08:03;13.55;;;11.30;;
13404;SDS011;6773;51.192;7.024;2023-06-22T12:10:29;13.07;;;11.70;;
13404;SDS011;6773;51.192;7.024;2023-06-22T12:12:55;13.20;;;11.80;;
13404;SDS011;6773;51.192;7.024;2023-06-22T12:15:22;13.82;;;11.80;;
13404;SDS011;6773;51.192;7.024;2023-06-22T12:17:48;12.30;;;11.00;;
13404;SDS011;6773;51.192;7.024;2023-06-22T12:20:14;11.38;;;10.27;;
13404;SDS011;6773;51.192;7.024;2023-06-22T12:22:40;16.15;;;11.73;;
13404;SDS011;6773;51.192;7.024;2023-06-22T12:25:06;14.45;;;12.90;;
13404;SDS011;6773;51.192;7.024;2023-06-22T12:27:33;16.35;;;14.13;;
13404;SDS011;6773;51.192;7.024;2023-06-22T12:29:59;15.65;;;14.00;;
13404;SDS011;6773;51.192;7.024;2023-06-22T12:32:25;16.42;;;14.38;;
13404;SDS011;6773;51.192;7.024;2023-06-22T12:34:51;18.38;;;14.43;;
13404;SDS011;6773;51.192;7.024;2023-06-22T12:37:17;19.63;;;13.55;;
13404;SDS011;6773;51.192;7.024;2023-06-22T12:39:43;15.15;;;13.48;;
13404;SDS011;6773;51.192;7.024;2023-06-22T12:42:08;15.05;;;13.52;;
13404;SDS011;6773;51.192;7.024;2023-06-22T12:44:37;14.23;;;12.82;;
13404;SDS011;6773;51.192;7.024;2023-06-22T12:47:03;15.73;;;13.15;;
13404;SDS011;6773;51.192;7.024;2023-06-22T12:49:29;14.95;;;13.45;;
13404;SDS011;6773;51.192;7.024;2023-06-22T12:51:54;15.82;;;13.75;;
13404;SDS011;6773;51.192;7.024;2023-06-22T12:54:20;14.70;;;13.30;;
13404;SDS011;6773;51.192;7.024;2023-06-22T12:56:46;14.90;;;13.30;;
13404;SDS011;6773;51.192;7.024;2023-06-22T12:59:12;15.35;;;12.98;;
13404;SDS011;6773;51.192;7.024;2023-06-22T13:01:38;13.88;;;12.45;;
13404;SDS011;6773;51.192;7.024;2023-06-22T13:04:03;15.43;;;13.88;;
13404;SDS011;6773;51.192;7.024;2023-06-22T13:06:30;14.43;;;12.82;;
13404;SDS011;6773;51.192;7.024;2023-06-22T13:08:56;13.55;;;12.25;;
13404;SDS011;6773;51.192;7.024;2023-06-22T13:11:21;13.18;;;11.73;;
13404;SDS011;6773;51.192;7.024;2023-06-22T13:13:47;12.68;;;11.40;;
13404;SDS011;6773;51.192;7.024;2023-06-22T13:16:13;12.23;;;11.05;;
13404;SDS011;6773;51.192;7.024;2023-06-22T13:18:38;12.73;;;11.43;;
13404;SDS011;6773;51.192;7.024;2023-06-22T13:21:04;12.68;;;11.48;;
13404;SDS011;6773;51.192;7.024;2023-06-22T13:23:30;13.48;;;12.18;;
13404;SDS011;6773;51.192;7.024;2023-06-22T13:25:57;12.20;;;11.07;;
13404;SDS011;6773;51.192;7.024;2023-06-22T13:28:23;12.32;;;11.13;;
13404;SDS011;6773;51.192;7.024;2023-06-22T13:30:48;10.95;;;9.85;;
13404;SDS011;6773;51.192;7.024;2023-06-22T13:33:14;11.52;;;10.43;;
13404;SDS011;6773;51.192;7.024;2023-06-22T13:35:40;11.38;;;10.18;;
13404;SDS011;6773;51.192;7.024;2023-06-22T13:38:07;11.35;;;10.13;;
13404;SDS011;6773;51.192;7.024;2023-06-22T13:40:34;9.88;;;8.88;;
13404;SDS011;6773;51.192;7.024;2023-06-22T13:42:59;9.15;;;8.35;;
13404;SDS011;6773;51.192;7.024;2023-06-22T13:45:25;10.45;;;9.43;;
13404;SDS011;6773;51.192;7.024;2023-06-22T13:47:51;10.95;;;8.68;;
13404;SDS011;6773;51.192;7.024;2023-06-22T13:50:17;10.13;;;9.13;;
13404;SDS011;6773;51.192;7.024;2023-06-22T13:52:43;10.55;;;8.88;;
13404;SDS011;6773;51.192;7.024;2023-06-22T13:55:09;10.63;;;9.40;;
13404;SDS011;6773;51.192;7.024;2023-06-22T13:57:35;9.20;;;8.32;;
13404;SDS011;6773;51.192;7.024;2023-06-22T14:00:01;9.73;;;8.73;;
13404;SDS011;6773;51.192;7.024;2023-06-22T14:02:28;9.45;;;8.43;;
13404;SDS011;6773;51.192;7.024;2023-06-22T14:04:54;9.43;;;8.38;;
13404;SDS011;6773;51.192;7.024;2023-06-22T14:07:20;9.40;;;8.43;;
13404;SDS011;6773;51.192;7.024;2023-06-22T14:09:46;10.18;;;8.98;;
13404;SDS011;6773;51.192;7.024;2023-06-22T14:12:12;9.95;;;9.00;;
13404;SDS011;6773;51.192;7.024;2023-06-22T14:14:38;9.55;;;8.45;;
13404;SDS011;6773;51.192;7.024;2023-06-22T14:17:04;9.88;;;8.88;;
13404;SDS011;6773;51.192;7.024;2023-06-22T14:19:30;8.52;;;7.60;;
13404;SDS011;6773;51.192;7.024;2023-06-22T14:21:56;9.75;;;8.25;;
13404;SDS011;6773;51.192;7.024;2023-06-22T14:24:22;8.15;;;7.25;;
13404;SDS011;6773;51.192;7.024;2023-06-22T14:26:48;9.95;;;8.43;;
13404;SDS011;6773;51.192;7.024;2023-06-22T14:29:14;9.70;;;8.70;;
13404;SDS011;6773;51.192;7.024;2023-06-22T14:31:39;12.05;;;9.10;;
13404;SDS011;6773;51.192;7.024;2023-06-22T14:34:05;9.20;;;8.10;;
13404;SDS011;6773;51.192;7.024;2023-06-22T14:36:31;10.77;;;9.27;;
13404;SDS011;6773;51.192;7.024;2023-06-22T14:38:57;10.35;;;9.30;;
13404;SDS011;6773;51.192;7.024;2023-06-22T14:41:22;11.20;;;9.68;;
13404;SDS011;6773;51.192;7.024;2023-06-22T14:43:49;9.90;;;8.90;;
13404;SDS011;6773;51.192;7.024;2023-06-22T14:46:15;9.82;;;8.93;;
13404;SDS011;6773;51.192;7.024;2023-06-22T14:48:42;8.95;;;8.05;;
13404;SDS011;6773;51.192;7.024;2023-06-22T14:51:09;10.25;;;9.25;;
13404;SDS011;6773;51.192;7.024;2023-06-22T14:53:36;10.07;;;9.07;;
13404;SDS011;6773;51.192;7.024;2023-06-22T14:56:02;11.32;;;9.13;;
13404;SDS011;6773;51.192;7.024;2023-06-22T14:58:31;9.95;;;8.95;;